Time;durP1;ratioP1;P1;durP2;ratioP2;P2;SDS_P1;SDS_P2;PMS_P1;PMS_P2;Temp;Humidity;BMP_temperature;BMP_pressure;BME280_temperature;BME280_humidity;BME280_pressure;Samples;Min_cycle;Max_cycle;Signal;HPM_P1;HPM_P2
2023/02/27 00:00:00;;;;;;;6.93;3.25;;;5.80;51.30;;;;;;5053212;28;20017;-72
2023/02/27 00:02:25;;;;;;;5.88;3.28;;;5.80;51.20;;;;;;5053072;28;20023;-73
2023/02/27 00:04:53;;;;;;;5.38;3.13;;;5.80;51.30;;;;;;5053035;28;20482;-72
2023/02/27 00:07:24;;;;;;;5.70;3.20;;;5.80;51.30;;;;;;5052797;28;20017;-72
2023/02/27 00:09:51;;;;;;;4.75;3.05;;;5.80;51.30;;;;;;5052849;28;20347;-72
2023/02/27 00:12:16;;;;;;;4.22;2.85;;;5.80;51.20;;;;;;5052925;28;20635;-72
2023/02/27 00:14:42;;;;;;;4.22;2.45;;;5.80;51.40;;;;;;5034893;28;20124;-73
2023/02/27 00:17:08;;;;;;;5.22;3.17;;;5.80;51.20;;;;;;5052446;28;20024;-73
2023/02/27 00:19:34;;;;;;;4.97;3.03;;;5.80;51.30;;;;;;5052759;28;20108;-73
2023/02/27 00:21:59;;;;;;;4.35;3.00;;;5.80;51.10;;;;;;5036984;28;20024;-73
2023/02/27 00:24:25;;;;;;;6.10;3.10;;;5.80;51.10;;;;;;5052212;28;20032;-73
2023/02/27 00:26:51;;;;;;;5.20;3.28;;;5.80;51.20;;;;;;5045648;28;20390;-73
2023/02/27 00:29:16;;;;;;;6.07;3.45;;;5.80;51.30;;;;;;5052745;28;20028;-72
2023/02/27 00:31:42;;;;;;;5.78;3.30;;;5.80;51.30;;;;;;5052806;28;20029;-73
2023/02/27 00:34:08;;;;;;;7.35;3.55;;;5.90;51.50;;;;;;5051900;28;20586;-73
2023/02/27 00:36:34;;;;;;;8.80;3.13;;;5.90;51.60;;;;;;5047144;28;20079;-72
2023/02/27 00:38:59;;;;;;;4.75;2.70;;;5.90;51.60;;;;;;5037943;28;20024;-73
2023/02/27 00:41:25;;;;;;;10.18;3.03;;;5.90;51.50;;;;;;5034211;28;20063;-73
2023/02/27 00:43:51;;;;;;;5.00;3.15;;;5.90;51.40;;;;;;5052469;28;20025;-73
2023/02/27 00:46:18;;;;;;;4.90;2.72;;;5.90;51.30;;;;;;5035137;28;20543;-73
2023/02/27 00:48:44;;;;;;;6.38;2.97;;;5.90;51.30;;;;;;5052597;28;20017;-73
2023/02/27 00:51:10;;;;;;;4.55;2.80;;;5.90;51.30;;;;;;5052775;28;20021;-73
2023/02/27 00:53:35;;;;;;;4.72;2.83;;;5.90;51.10;;;;;;5052674;28;20466;-73
2023/02/27 00:56:01;;;;;;;4.82;2.67;;;5.90;50.90;;;;;;5052395;28;20033;-73
2023/02/27 00:58:27;;;;;;;6.88;3.40;;;6.00;51.00;;;;;;5052291;28;20079;-73
2023/02/27 01:00:53;;;;;;;4.40;2.38;;;6.00;50.80;;;;;;5052541;28;20033;-72
2023/02/27 01:03:18;;;;;;;5.20;2.72;;;5.90;50.70;;;;;;5052442;28;20029;-73
2023/02/27 01:05:44;;;;;;;5.38;2.70;;;5.90;50.60;;;;;;5052641;28;20425;-73
2023/02/27 01:08:10;;;;;;;3.78;2.40;;;5.90;50.60;;;;;;5049638;28;20535;-73
2023/02/27 01:10:36;;;;;;;6.28;2.60;;;6.00;50.60;;;;;;5052384;28;20052;-72
2023/02/27 01:13:01;;;;;;;6.03;3.20;;;5.90;50.40;;;;;;5052454;28;20024;-73
2023/02/27 01:15:27;;;;;;;5.78;2.83;;;5.90;50.40;;;;;;5052989;28;20371;-72
2023/02/27 01:17:53;;;;;;;6.72;2.92;;;5.90;50.30;;;;;;5055743;28;20047;-72
2023/02/27 01:20:19;;;;;;;3.70;2.47;;;5.90;50.30;;;;;;5051974;28;20437;-74
2023/02/27 01:22:45;;;;;;;4.43;2.65;;;5.90;50.40;;;;;;5052264;28;20066;-70
2023/02/27 01:25:10;;;;;;;6.35;2.72;;;5.90;50.30;;;;;;5051847;28;20052;-73
2023/02/27 01:27:36;;;;;;;8.30;2.95;;;5.90;50.20;;;;;;5052382;28;20048;-73
2023/02/27 01:30:02;;;;;;;4.93;2.80;;;5.90;50.20;;;;;;5034495;28;20497;-72
2023/02/27 01:32:28;;;;;;;5.22;2.97;;;5.90;50.40;;;;;;5052303;28;20112;-73
2023/02/27 01:34:54;;;;;;;8.45;3.10;;;5.80;50.70;;;;;;5044077;28;20112;-73
2023/02/27 01:37:20;;;;;;;5.68;3.35;;;5.80;50.60;;;;;;5052172;28;20071;-73
2023/02/27 01:39:45;;;;;;;4.55;2.83;;;5.80;50.70;;;;;;5049192;28;20025;-72
2023/02/27 01:42:24;;;;;;;4.65;2.83;;;5.80;50.90;;;;;;5047594;28;20036;-73
2023/02/27 01:45:08;;;;;;;7.65;3.10;;;5.80;51.00;;;;;;5038655;28;20478;-73
2023/02/27 01:47:34;;;;;;;;;;;5.70;51.20;;;;;;5034861;28;20565;-73
2023/02/27 01:50:00;;;;;;;5.53;2.85;;;5.80;51.30;;;;;;5034239;28;20316;-73
2023/02/27 01:52:28;;;;;;;7.47;3.30;;;5.80;51.50;;;;;;5051991;28;20028;-74
2023/02/27 01:54:55;;;;;;;6.50;3.45;;;5.70;51.50;;;;;;5053173;28;20484;-73
2023/02/27 01:57:21;;;;;;;8.95;3.53;;;5.70;51.60;;;;;;5055777;28;20020;-73
2023/02/27 01:59:47;;;;;;;5.72;2.47;;;5.70;51.60;;;;;;5055481;28;20029;-73
2023/02/27 02:02:26;;;;;;;6.40;3.25;;;5.70;51.70;;;;;;5055524;28;20048;-73
2023/02/27 02:04:54;;;;;;;7.80;3.42;;;5.60;51.80;;;;;;5046291;28;20122;-73
2023/02/27 02:07:20;;;;;;;6.75;3.63;;;5.60;51.80;;;;;;5027980;28;20425;-73
2023/02/27 02:09:52;;;;;;;7.38;3.08;;;5.60;51.80;;;;;;5055280;28;20024;-73
2023/02/27 02:12:23;;;;;;;5.03;3.13;;;5.60;51.90;;;;;;5055531;28;20025;-73
2023/02/27 02:14:49;;;;;;;9.23;3.45;;;5.60;51.80;;;;;;5049000;28;20021;-73
2023/02/27 02:17:42;;;;;;;9.13;3.60;;;5.60;51.70;;;;;;5028278;28;20026;-73
2023/02/27 02:20:32;;;;;;;8.73;3.40;;;5.60;51.80;;;;;;5054979;28;20025;-73
2023/02/27 02:23:04;;;;;;;6.22;3.65;;;5.50;51.60;;;;;;5051748;28;20032;-73
2023/02/27 02:25:58;;;;;;;5.70;3.60;;;5.60;51.60;;;;;;5036851;28;20048;-73
2023/02/27 02:29:02;;;;;;;7.70;3.70;;;5.50;51.70;;;;;;5060025;28;20031;-73
2023/02/27 02:31:40;;;;;;;5.90;2.90;;;5.60;51.60;;;;;;5044129;28;20037;-73
2023/02/27 02:34:36;;;;;;;7.40;3.20;;;5.60;51.40;;;;;;5053878;28;20060;-73
2023/02/27 02:37:29;;;;;;;5.95;2.88;;;5.60;51.30;;;;;;5051748;28;20560;-73
2023/02/27 02:40:10;;;;;;;5.82;3.00;;;5.60;51.30;;;;;;5037274;28;20406;-73
2023/02/27 02:43:11;;;;;;;6.63;3.10;;;5.70;51.10;;;;;;5054596;28;20028;-74
2023/02/27 02:45:53;;;;;;;6.97;3.22;;;5.70;50.90;;;;;;4999785;28;20048;-73
2023/02/27 02:48:29;;;;;;;4.22;2.65;;;5.70;50.60;;;;;;5054547;28;20021;-73
2023/02/27 02:51:16;;;;;;;12.02;2.78;;;5.70;50.30;;;;;;5052365;28;20017;-74
2023/02/27 02:53:54;;;;;;;7.03;3.35;;;5.70;50.40;;;;;;5045574;28;20032;-73
2023/02/27 02:56:36;;;;;;;6.47;3.17;;;5.70;50.20;;;;;;5054283;28;20382;-74
2023/02/27 02:59:16;;;;;;;6.97;3.38;;;5.60;50.10;;;;;;5051236;28;20035;-73
2023/02/27 03:01:45;;;;;;;4.50;2.53;;;5.70;50.10;;;;;;5054408;28;20083;-73
2023/02/27 03:04:46;;;;;;;5.68;2.75;;;5.70;50.30;;;;;;5053826;28;20548;-73
2023/02/27 03:07:28;;;;;;;5.10;2.60;;;5.80;50.40;;;;;;4970728;28;20035;-73
2023/02/27 03:10:02;;;;;;;9.52;3.30;;;5.90;50.40;;;;;;4956996;28;20039;-73
2023/02/27 03:12:30;;;;;;;9.33;3.13;;;5.90;50.40;;;;;;4973261;28;20081;-73
2023/02/27 03:15:10;;;;;;;6.78;2.75;;;5.90;50.20;;;;;;4975135;28;20289;-73
2023/02/27 03:17:45;;;;;;;6.90;2.50;;;6.00;50.20;;;;;;4972642;28;20551;-74
2023/02/27 03:20:19;;;;;;;8.45;3.70;;;6.00;50.30;;;;;;4973237;28;20063;-73
2023/02/27 03:22:49;;;;;;;5.22;2.75;;;6.00;50.30;;;;;;4973213;28;20375;-73
2023/02/27 03:25:17;;;;;;;5.78;3.03;;;6.00;50.40;;;;;;4972632;28;20050;-73
2023/02/27 03:27:49;;;;;;;4.20;2.60;;;6.10;50.40;;;;;;4973244;28;20043;-73
2023/02/27 03:30:33;;;;;;;7.35;2.90;;;6.10;50.40;;;;;;4957006;28;20045;-74
2023/02/27 03:33:15;;;;;;;5.72;2.78;;;6.10;50.40;;;;;;4969813;28;20061;-73
2023/02/27 03:35:54;;;;;;;4.32;2.60;;;6.20;50.50;;;;;;4973039;28;20124;-73
2023/02/27 03:38:22;;;;;;;5.53;2.88;;;6.20;50.20;;;;;;4973024;28;20027;-73
2023/02/27 03:40:56;;;;;;;5.05;3.20;;;6.20;50.10;;;;;;4967977;28;20040;-73
2023/02/27 03:43:50;;;;;;;6.75;3.00;;;6.20;49.90;;;;;;5034852;28;20491;-73
2023/02/27 03:46:20;;;;;;;5.28;2.78;;;6.20;49.90;;;;;;5053580;28;20025;-73
2023/02/27 03:48:46;;;;;;;4.65;2.95;;;6.20;50.00;;;;;;5053526;28;20474;-74
2023/02/27 03:51:20;;;;;;;8.23;3.13;;;6.30;50.50;;;;;;5053377;28;20443;-73
2023/02/27 03:54:12;;;;;;;;;;;6.30;49.90;;;;;;5054007;28;20032;-73
2023/02/27 03:56:49;;;;;;;10.15;3.03;;;6.30;50.10;;;;;;5051396;28;19905;-73
2023/02/27 03:59:16;;;;;;;5.65;2.35;;;6.30;49.80;;;;;;5041589;28;20028;-73
2023/02/27 04:01:43;;;;;;;4.90;2.72;;;6.20;49.70;;;;;;5053389;28;20029;-74
2023/02/27 04:04:11;;;;;;;5.93;3.03;;;6.20;49.80;;;;;;5053018;28;20021;-73
2023/02/27 04:10:09;;;;;;;6.35;3.22;;;6.20;50.00;;;;;;5041937;28;20032;-73
2023/02/27 04:13:12;;;;;;;6.60;2.72;;;6.20;50.00;;;;;;5053196;28;20091;-73
2023/02/27 04:15:59;;;;;;;5.78;3.03;;;6.30;50.10;;;;;;5030743;28;20081;-73
2023/02/27 04:19:16;;;;;;;9.52;3.20;;;6.20;50.00;;;;;;5052744;28;20533;-73
2023/02/27 04:21:53;;;;;;;8.07;3.10;;;6.20;50.00;;;;;;4952988;29;20528;-73
2023/02/27 04:24:36;;;;;;;6.88;3.30;;;6.20;50.00;;;;;;4936536;29;20548;-73
2023/02/27 04:27:26;;;;;;;8.52;3.28;;;6.10;50.00;;;;;;4932276;29;20147;-74
2023/02/27 04:29:54;;;;;;;6.95;3.42;;;6.10;50.20;;;;;;4952984;29;20039;-74
2023/02/27 04:32:52;;;;;;;10.35;3.28;;;6.10;50.30;;;;;;4952149;29;20037;-73
2023/02/27 04:35:49;;;;;;;6.90;3.38;;;6.10;50.40;;;;;;4931608;29;20039;-73
2023/02/27 04:38:29;;;;;;;7.40;2.95;;;6.10;50.40;;;;;;4955747;28;20534;-73
2023/02/27 04:41:08;;;;;;;6.35;3.20;;;6.10;50.40;;;;;;4937855;29;20027;-73
2023/02/27 04:43:37;;;;;;;8.27;2.88;;;6.10;50.40;;;;;;4959205;28;20031;-72
2023/02/27 04:46:07;;;;;;;9.40;3.00;;;6.20;50.40;;;;;;4974618;28;20059;-73
2023/02/27 04:48:44;;;;;;;9.23;3.10;;;6.10;50.20;;;;;;4952063;29;20051;-72
2023/02/27 04:51:15;;;;;;;14.40;3.85;;;6.20;50.30;;;;;;4952733;29;20032;-73
2023/02/27 04:53:50;;;;;;;5.20;2.90;;;6.20;50.00;;;;;;4952768;29;20027;-73
2023/02/27 04:56:22;;;;;;;7.00;3.08;;;6.10;49.70;;;;;;4968935;28;20045;-73
2023/02/27 04:58:53;;;;;;;9.55;3.55;;;6.10;50.40;;;;;;5024066;28;20017;-73
2023/02/27 05:01:32;;;;;;;7.43;3.45;;;6.00;49.70;;;;;;5034857;28;20604;-71
2023/02/27 05:03:58;;;;;;;8.40;3.70;;;5.90;49.60;;;;;;5034288;28;20029;-73
2023/02/27 05:06:29;;;;;;;13.27;3.50;;;5.90;49.90;;;;;;5051476;28;20402;-73
2023/02/27 05:09:02;;;;;;;6.43;3.00;;;5.90;50.10;;;;;;5052643;28;20021;-73
2023/02/27 05:11:38;;;;;;;8.13;3.60;;;5.90;50.10;;;;;;5052452;28;20100;-73
2023/02/27 05:14:25;;;;;;;7.18;3.40;;;5.90;50.00;;;;;;5052305;28;20018;-74
2023/02/27 05:17:03;;;;;;;7.68;3.30;;;5.90;49.80;;;;;;5019374;28;20505;-73
2023/02/27 05:19:31;;;;;;;11.00;3.70;;;5.90;49.50;;;;;;5052387;28;20482;-74
2023/02/27 05:22:08;;;;;;;11.45;3.25;;;5.90;49.30;;;;;;5052084;28;20028;-74
2023/02/27 05:24:59;;;;;;;10.68;3.30;;;5.90;49.10;;;;;;5046651;28;20081;-73
2023/02/27 05:27:30;;;;;;;6.10;3.35;;;5.90;48.80;;;;;;5021186;28;20076;-73
2023/02/27 05:30:05;;;;;;;5.47;3.00;;;5.90;48.40;;;;;;5033642;28;20364;-74
2023/02/27 05:32:45;;;;;;;7.20;2.55;;;5.80;47.60;;;;;;5016008;28;20036;-74
2023/02/27 05:35:27;;;;;;;7.32;3.25;;;5.80;47.30;;;;;;5025087;28;20379;-73
2023/02/27 05:38:08;;;;;;;7.85;3.05;;;5.80;46.80;;;;;;5023655;28;20076;-74
2023/02/27 05:40:38;;;;;;;6.68;2.50;;;5.80;46.20;;;;;;5020752;28;20021;-74
2023/02/27 05:43:25;;;;;;;13.48;3.25;;;5.70;46.00;;;;;;5018042;28;20490;-73
2023/02/27 05:46:00;;;;;;;7.38;2.80;;;5.60;45.60;;;;;;5023678;28;20032;-73
2023/02/27 05:48:37;;;;;;;8.88;2.95;;;5.60;45.80;;;;;;5032357;28;20103;-74
2023/02/27 05:51:08;;;;;;;8.65;3.05;;;5.60;45.70;;;;;;5017679;28;20467;-73
2023/02/27 05:53:40;;;;;;;7.53;3.63;;;5.60;45.80;;;;;;5014430;28;20387;-73
2023/02/27 05:56:07;;;;;;;13.30;3.65;;;5.60;46.20;;;;;;5026990;28;20423;-74
2023/02/27 05:59:01;;;;;;;8.57;3.17;;;5.60;46.30;;;;;;5031009;28;20036;-73
2023/02/27 06:01:27;;;;;;;8.38;3.45;;;5.60;46.30;;;;;;5026669;28;20025;-73
2023/02/27 06:03:53;;;;;;;5.07;2.75;;;5.60;46.20;;;;;;5018247;28;20515;-73
2023/02/27 06:06:21;;;;;;;18.52;3.50;;;5.50;46.20;;;;;;5019553;28;20455;-74
2023/02/27 06:08:47;;;;;;;7.00;3.22;;;5.50;46.30;;;;;;5019481;28;20071;-73
2023/02/27 06:11:13;;;;;;;16.70;3.72;;;5.50;46.00;;;;;;5022017;28;20056;-73
2023/02/27 06:13:39;;;;;;;13.15;3.72;;;5.50;46.40;;;;;;5025009;28;20030;-74
2023/02/27 06:16:08;;;;;;;6.97;2.88;;;5.50;46.40;;;;;;5029151;28;20032;-74
2023/02/27 06:18:34;;;;;;;5.55;2.55;;;5.50;46.50;;;;;;5018716;28;20018;-72
2023/02/27 06:21:00;;;;;;;7.60;3.35;;;5.50;46.70;;;;;;5029089;28;20018;-73
2023/02/27 06:23:25;;;;;;;6.32;2.63;;;5.50;46.80;;;;;;5012861;28;20156;-73
2023/02/27 06:25:51;;;;;;;8.60;3.58;;;5.50;46.80;;;;;;5043827;28;20064;-73
2023/02/27 06:28:17;;;;;;;6.07;2.60;;;5.50;46.60;;;;;;5055024;28;20062;-73
2023/02/27 06:30:43;;;;;;;6.90;2.78;;;5.50;46.50;;;;;;5052786;28;20031;-73
2023/02/27 06:33:09;;;;;;;19.17;4.75;;;5.50;46.40;;;;;;5050251;28;20108;-73
2023/02/27 06:35:35;;;;;;;9.10;3.30;;;5.50;46.20;;;;;;5054681;28;20029;-74
2023/02/27 06:38:00;;;;;;;17.35;4.28;;;5.50;46.20;;;;;;5054452;28;20128;-74
2023/02/27 06:40:26;;;;;;;11.82;4.00;;;5.40;46.10;;;;;;5053560;28;20024;-73
2023/02/27 06:42:52;;;;;;;10.73;3.90;;;5.40;46.10;;;;;;5054632;28;20100;-73
2023/02/27 06:45:18;;;;;;;11.10;3.67;;;5.30;46.10;;;;;;5054378;28;20025;-75
2023/02/27 06:47:44;;;;;;;9.15;3.92;;;5.40;46.30;;;;;;5050266;28;20047;-72
2023/02/27 06:50:12;;;;;;;13.85;3.92;;;5.30;46.30;;;;;;5039658;28;20039;-72
2023/02/27 06:52:38;;;;;;;23.52;3.75;;;5.40;46.50;;;;;;5052936;28;20025;-74
2023/02/27 06:55:06;;;;;;;11.50;3.67;;;5.30;46.40;;;;;;5036390;28;20112;-74
2023/02/27 06:57:32;;;;;;;10.38;3.80;;;5.30;46.40;;;;;;5053964;28;20453;-75
2023/02/27 06:59:58;;;;;;;12.80;4.15;;;5.40;46.60;;;;;;5052982;28;20067;-75
2023/02/27 07:02:24;;;;;;;11.40;3.60;;;5.40;46.40;;;;;;5054076;28;20083;-75
2023/02/27 07:04:51;;;;;;;14.43;4.40;;;5.40;46.30;;;;;;5052992;28;20031;-75
2023/02/27 07:07:17;;;;;;;10.45;3.67;;;5.40;46.40;;;;;;5036451;28;20086;-75
2023/02/27 07:09:43;;;;;;;18.42;3.80;;;5.50;46.50;;;;;;5053486;28;20049;-75
2023/02/27 07:12:09;;;;;;;14.52;4.10;;;5.50;46.20;;;;;;5057984;28;20064;-74
2023/02/27 07:14:34;;;;;;;15.52;3.75;;;5.50;46.00;;;;;;5057272;28;20033;-74
2023/02/27 07:17:03;;;;;;;11.20;3.38;;;5.50;46.10;;;;;;5041636;28;20021;-74
2023/02/27 07:19:30;;;;;;;11.57;3.65;;;5.60;46.40;;;;;;5062447;28;20023;-75
2023/02/27 07:21:56;;;;;;;11.32;3.20;;;5.70;46.40;;;;;;5039424;28;20049;-73
2023/02/27 07:24:22;;;;;;;12.15;3.53;;;5.70;46.00;;;;;;5049423;28;20438;-72
2023/02/27 07:26:49;;;;;;;13.75;3.78;;;5.80;46.10;;;;;;5035438;28;20059;-73
2023/02/27 07:29:15;;;;;;;12.15;3.83;;;5.80;45.80;;;;;;5054035;28;20017;-72
2023/02/27 07:31:41;;;;;;;8.90;3.13;;;5.90;45.80;;;;;;5053797;28;20047;-73
2023/02/27 07:34:08;;;;;;;11.32;3.30;;;5.90;45.40;;;;;;5053465;28;20371;-73
2023/02/27 07:36:34;;;;;;;9.13;3.35;;;5.90;45.40;;;;;;5053051;28;20108;-73
2023/02/27 07:39:02;;;;;;;7.20;3.40;;;5.90;45.30;;;;;;5053655;28;20550;-73
2023/02/27 07:41:27;;;;;;;5.80;2.95;;;5.90;44.80;;;;;;5051599;28;20059;-73
2023/02/27 07:43:53;;;;;;;6.13;2.70;;;6.00;44.90;;;;;;5053198;28;20052;-72
2023/02/27 07:46:22;;;;;;;18.08;3.55;;;6.00;44.90;;;;;;5053537;28;20028;-73
2023/02/27 07:48:48;;;;;;;7.22;2.97;;;6.10;45.00;;;;;;5041935;28;20385;-73
2023/02/27 07:51:14;;;;;;;11.30;2.97;;;6.10;44.50;;;;;;5053386;28;20024;-73
2023/02/27 07:53:40;;;;;;;8.57;3.58;;;6.10;44.10;;;;;;5051527;28;20138;-74
2023/02/27 07:56:06;;;;;;;28.70;4.45;;;6.10;44.20;;;;;;5052101;28;20028;-73
2023/02/27 07:58:31;;;;;;;10.40;3.00;;;6.20;44.30;;;;;;5053218;28;20044;-73
2023/02/27 08:00:57;;;;;;;6.82;2.95;;;6.20;43.80;;;;;;5053298;28;20021;-73
2023/02/27 08:03:23;;;;;;;7.75;3.42;;;6.20;43.80;;;;;;5051639;28;20016;-73
2023/02/27 08:05:49;;;;;;;8.02;3.63;;;6.30;44.40;;;;;;5049646;28;20097;-73
2023/02/27 08:08:14;;;;;;;8.38;3.40;;;6.30;44.10;;;;;;5051929;28;20025;-73
2023/02/27 08:10:40;;;;;;;6.13;3.03;;;6.40;44.20;;;;;;5052847;28;20079;-73
2023/02/27 08:13:06;;;;;;;6.60;2.72;;;6.50;43.90;;;;;;5035178;28;20474;-73
2023/02/27 08:15:32;;;;;;;7.85;3.28;;;6.50;43.40;;;;;;5052903;28;20458;-73
2023/02/27 08:17:58;;;;;;;18.40;3.45;;;6.50;43.30;;;;;;5052821;28;20031;-74
2023/02/27 08:20:24;;;;;;;11.10;3.00;;;6.60;43.10;;;;;;5050475;28;20021;-73
2023/02/27 08:22:50;;;;;;;10.77;2.20;;;6.70;43.10;;;;;;5048116;28;20394;-73
2023/02/27 08:25:17;;;;;;;12.15;2.85;;;6.80;43.30;;;;;;5022198;28;20042;-73
2023/02/27 08:27:42;;;;;;;9.15;2.58;;;6.90;42.90;;;;;;5012983;28;20554;-74
2023/02/27 08:30:11;;;;;;;7.72;2.80;;;7.00;42.30;;;;;;5011941;28;20029;-74
2023/02/27 08:32:37;;;;;;;7.57;2.97;;;7.00;41.90;;;;;;5012555;28;20495;-74
2023/02/27 08:35:04;;;;;;;7.68;2.33;;;7.10;41.90;;;;;;5006482;28;20019;-73
2023/02/27 08:37:30;;;;;;;9.90;2.10;;;7.10;41.20;;;;;;5010619;28;20029;-73
2023/02/27 08:39:56;;;;;;;4.93;2.30;;;7.30;40.70;;;;;;5007732;28;20057;-73
2023/02/27 08:42:22;;;;;;;7.60;2.38;;;7.30;40.40;;;;;;5012869;28;20081;-73
2023/02/27 08:44:49;;;;;;;6.65;2.17;;;7.30;39.90;;;;;;5008229;28;20022;-73
2023/02/27 08:47:16;;;;;;;7.85;2.85;;;7.30;39.80;;;;;;5011156;28;20534;-73
2023/02/27 08:49:42;;;;;;;7.10;2.67;;;7.40;40.10;;;;;;5012617;28;20108;-74
2023/02/27 08:52:08;;;;;;;5.97;2.85;;;7.50;40.20;;;;;;5012687;28;20376;-74
2023/02/27 08:54:35;;;;;;;9.02;2.45;;;7.50;39.90;;;;;;5012518;28;20073;-73
2023/02/27 08:57:02;;;;;;;4.65;2.13;;;7.60;39.20;;;;;;5012415;28;20249;-73
2023/02/27 08:59:29;;;;;;;5.80;2.25;;;7.60;39.40;;;;;;5012594;28;20530;-73
2023/02/27 09:01:55;;;;;;;5.47;2.40;;;7.70;39.60;;;;;;5012773;28;20060;-74
2023/02/27 09:04:21;;;;;;;9.65;2.97;;;7.80;38.00;;;;;;5009089;28;20105;-74
2023/02/27 09:06:47;;;;;;;10.73;2.67;;;7.70;37.90;;;;;;5003148;28;20109;-73
2023/02/27 09:09:13;;;;;;;9.82;2.53;;;7.60;37.70;;;;;;5015403;28;20026;-75
2023/02/27 09:11:39;;;;;;;8.60;2.33;;;7.60;38.10;;;;;;5016653;28;20069;-74
2023/02/27 09:14:05;;;;;;;4.88;2.17;;;7.70;38.80;;;;;;5014420;28;20061;-74
2023/02/27 09:16:31;;;;;;;5.18;2.22;;;7.70;38.50;;;;;;5016448;28;20034;-73
2023/02/27 09:18:56;;;;;;;9.50;2.75;;;7.80;38.40;;;;;;5016471;28;20025;-74
2023/02/27 09:21:23;;;;;;;11.60;2.88;;;7.90;38.70;;;;;;5016464;28;20382;-74
2023/02/27 09:23:50;;;;;;;8.25;3.28;;;8.10;38.30;;;;;;5016364;28;20022;-73
2023/02/27 09:26:16;;;;;;;7.40;2.65;;;8.10;37.70;;;;;;5047300;28;20402;-74
2023/02/27 09:28:42;;;;;;;6.10;2.70;;;8.10;36.90;;;;;;5056111;28;20090;-75
2023/02/27 09:31:09;;;;;;;9.23;2.58;;;8.10;36.80;;;;;;5055981;28;20474;-75
2023/02/27 09:33:37;;;;;;;4.88;2.17;;;8.10;37.00;;;;;;5054400;28;20029;-74
2023/02/27 09:36:05;;;;;;;22.60;3.50;;;8.10;36.20;;;;;;5055642;28;20095;-74
2023/02/27 09:38:33;;;;;;;6.18;2.55;;;8.10;37.10;;;;;;5055999;28;20546;-74
2023/02/27 09:41:00;;;;;;;6.70;2.67;;;8.10;37.00;;;;;;5056015;28;20025;-74
2023/02/27 09:43:45;;;;;;;5.05;2.50;;;8.20;37.20;;;;;;5055858;28;20370;-74
2023/02/27 09:46:16;;;;;;;6.47;2.75;;;8.30;37.00;;;;;;5055718;28;20029;-74
2023/02/27 09:48:51;;;;;;;4.95;2.30;;;8.40;36.50;;;;;;5037829;28;20068;-74
2023/02/27 09:51:19;;;;;;;7.85;2.63;;;8.50;36.10;;;;;;5055886;28;20109;-74
2023/02/27 09:53:48;;;;;;;6.68;2.15;;;8.50;36.00;;;;;;5055622;28;20154;-75
2023/02/27 09:56:34;;;;;;;9.98;2.17;;;8.60;36.00;;;;;;5054645;28;20029;-75
2023/02/27 09:59:19;;;;;;;6.97;2.05;;;8.70;36.30;;;;;;5023048;28;20017;-74
2023/02/27 10:01:55;;;;;;;6.85;2.85;;;8.80;36.20;;;;;;5037914;28;20025;-74
2023/02/27 10:04:35;;;;;;;11.18;3.55;;;8.90;36.20;;;;;;5054803;28;20100;-74
2023/02/27 10:07:15;;;;;;;6.13;2.30;;;9.00;35.70;;;;;;5054375;28;20104;-74
2023/02/27 10:09:59;;;;;;;6.15;2.00;;;9.00;34.30;;;;;;5055504;28;20069;-74
2023/02/27 10:12:38;;;;;;;5.05;1.90;;;9.00;34.20;;;;;;5055359;28;20496;-74
2023/02/27 10:15:13;;;;;;;4.72;2.03;;;8.80;33.40;;;;;;5054706;28;20021;-72
2023/02/27 10:17:43;;;;;;;4.03;1.85;;;8.80;32.70;;;;;;5054112;28;20024;-74
2023/02/27 10:20:32;;;;;;;3.80;2.10;;;8.70;32.50;;;;;;5037233;28;20100;-75
2023/02/27 10:23:03;;;;;;;7.80;3.10;;;8.60;33.60;;;;;;5053669;28;20013;-75
2023/02/27 10:25:48;;;;;;;6.05;2.67;;;8.60;33.60;;;;;;5055025;28;20339;-74
2023/02/27 10:28:19;;;;;;;7.82;2.42;;;8.70;33.90;;;;;;5054892;28;20029;-74
2023/02/27 10:30:52;;;;;;;10.88;3.00;;;8.80;34.70;;;;;;5054994;28;20112;-74
2023/02/27 10:33:35;;;;;;;15.98;3.50;;;8.90;34.30;;;;;;5054740;28;20104;-75
2023/02/27 10:36:02;;;;;;;11.35;2.38;;;8.90;33.10;;;;;;5036890;28;20024;-74
2023/02/27 10:38:39;;;;;;;10.90;2.75;;;8.90;32.70;;;;;;5054898;28;20024;-75
2023/02/27 10:41:09;;;;;;;7.55;2.15;;;8.90;33.40;;;;;;5054885;28;20017;-74
2023/02/27 10:43:35;;;;;;;4.68;2.15;;;9.00;33.30;;;;;;5054901;28;20021;-74
2023/02/27 10:46:02;;;;;;;3.78;2.10;;;9.10;34.20;;;;;;5035803;28;20040;-75
2023/02/27 10:48:31;;;;;;;5.80;2.05;;;9.20;34.70;;;;;;5054787;28;20547;-74
2023/02/27 10:51:29;;;;;;;7.07;2.80;;;9.30;33.80;;;;;;5054909;28;20028;-74
2023/02/27 10:54:14;;;;;;;7.72;1.98;;;9.30;32.60;;;;;;5036747;28;20036;-74
2023/02/27 10:56:43;;;;;;;9.05;2.65;;;9.30;33.00;;;;;;5054713;28;20471;-74
2023/02/27 10:59:24;;;;;;;7.47;2.42;;;9.20;32.20;;;;;;5052927;28;20075;-74
2023/02/27 11:01:57;;;;;;;9.00;2.60;;;9.10;31.80;;;;;;5024820;28;20021;-74
2023/02/27 11:04:52;;;;;;;4.28;1.90;;;9.00;32.30;;;;;;5050832;28;20430;-74
2023/02/27 11:07:30;;;;;;;6.97;2.40;;;9.10;33.50;;;;;;5015802;28;20444;-75
2023/02/27 11:10:15;;;;;;;6.13;2.22;;;9.10;33.30;;;;;;5054501;28;20442;-75
2023/02/27 11:13:03;;;;;;;6.85;2.47;;;9.10;32.50;;;;;;5054212;28;20108;-75
2023/02/27 11:15:35;;;;;;;7.47;2.15;;;9.10;32.60;;;;;;5053752;28;20458;-73
2023/02/27 11:18:25;;;;;;;7.80;2.60;;;9.10;33.40;;;;;;5016633;28;20079;-73
2023/02/27 11:20:53;;;;;;;10.23;2.10;;;9.00;32.90;;;;;;5038061;28;20235;-75
2023/02/27 11:23:23;;;;;;;9.00;2.05;;;9.00;32.70;;;;;;5053979;28;20024;-75
2023/02/27 11:25:50;;;;;;;4.50;2.25;;;9.00;32.80;;;;;;5039519;28;20045;-72
2023/02/27 11:28:24;;;;;;;10.15;2.25;;;9.10;33.60;;;;;;5031639;28;20108;-73
2023/02/27 11:30:57;;;;;;;;;;;9.10;33.50;;;;;;5031592;28;20025;-73
2023/02/27 11:33:24;;;;;;;8.13;2.28;;;9.20;33.80;;;;;;5031834;28;19905;-75
2023/02/27 11:35:53;;;;;;;4.82;2.03;;;9.10;32.10;;;;;;5033257;28;20542;-72
2023/02/27 11:38:25;;;;;;;9.85;2.13;;;9.10;32.10;;;;;;5016888;28;20022;-73
2023/02/27 11:40:55;;;;;;;8.95;2.22;;;9.00;32.40;;;;;;5017770;28;20120;-73
2023/02/27 11:43:23;;;;;;;8.05;2.20;;;8.90;32.00;;;;;;5032467;28;20076;-73
2023/02/27 11:46:01;;;;;;;6.47;2.20;;;8.80;32.20;;;;;;5032742;28;20025;-74
2023/02/27 11:48:36;;;;;;;3.83;1.60;;;8.80;32.60;;;;;;5030387;28;20052;-74
2023/02/27 11:51:33;;;;;;;7.15;2.08;;;8.70;33.30;;;;;;5033646;28;20052;-73
2023/02/27 11:54:06;;;;;;;7.22;2.65;;;8.80;33.50;;;;;;5032938;28;20108;-73
2023/02/27 11:56:36;;;;;;;5.15;2.38;;;8.90;33.30;;;;;;5033626;28;20122;-74
2023/02/27 11:59:11;;;;;;;6.32;2.90;;;8.90;32.60;;;;;;5048810;28;20096;-73
2023/02/27 12:01:52;;;;;;;6.95;2.65;;;8.80;31.70;;;;;;5034209;28;20025;-74
2023/02/27 12:04:41;;;;;;;13.35;3.08;;;8.70;32.10;;;;;;5031516;28;20040;-73
2023/02/27 12:07:34;;;;;;;5.88;2.60;;;8.70;32.50;;;;;;5019571;28;20093;-73
2023/02/27 12:10:19;;;;;;;9.27;2.80;;;8.60;32.40;;;;;;5032396;28;20033;-75
2023/02/27 12:13:05;;;;;;;9.93;2.60;;;8.70;32.90;;;;;;5010812;28;20078;-74
2023/02/27 12:15:58;;;;;;;5.82;2.50;;;8.80;33.10;;;;;;5025401;28;20030;-74
2023/02/27 12:18:33;;;;;;;7.25;3.03;;;8.90;33.40;;;;;;4970612;28;20357;-75
2023/02/27 12:21:35;;;;;;;6.25;2.20;;;8.90;33.00;;;;;;5032967;28;20411;-75
2023/02/27 12:24:15;;;;;;;9.77;4.10;;;9.00;33.40;;;;;;5032763;28;20028;-74
2023/02/27 12:26:48;;;;;;;8.27;2.42;;;9.00;33.00;;;;;;5032403;28;20387;-74
2023/02/27 12:29:40;;;;;;;9.88;3.20;;;9.00;33.10;;;;;;5033008;28;20010;-75
2023/02/27 12:32:27;;;;;;;6.13;2.70;;;9.00;33.00;;;;;;5032473;28;20021;-75
2023/02/27 12:34:55;;;;;;;6.07;2.40;;;9.00;32.80;;;;;;5031600;28;20105;-76
2023/02/27 12:37:32;;;;;;;14.50;2.70;;;8.90;32.90;;;;;;5033380;28;20421;-73
2023/02/27 12:40:00;;;;;;;5.47;2.53;;;8.80;33.30;;;;;;5038065;28;20022;-73
2023/02/27 12:42:26;;;;;;;4.07;2.28;;;8.80;33.80;;;;;;5043961;28;20013;-73
2023/02/27 12:45:17;;;;;;;9.57;2.53;;;8.90;33.90;;;;;;5032068;28;20031;-73
2023/02/27 12:48:12;;;;;;;5.82;2.80;;;9.00;34.00;;;;;;5026979;28;20032;-73
2023/02/27 12:51:11;;;;;;;7.80;2.75;;;9.00;33.40;;;;;;5001576;28;20042;-73
2023/02/27 12:54:17;;;;;;;14.20;2.92;;;9.10;33.70;;;;;;5035945;28;20035;-73
2023/02/27 12:56:44;;;;;;;5.43;2.92;;;9.10;33.30;;;;;;5031805;28;20048;-73
2023/02/27 12:59:13;;;;;;;7.22;2.40;;;9.10;33.60;;;;;;5032318;28;20021;-74
2023/02/27 13:02:02;;;;;;;5.05;2.35;;;9.20;33.30;;;;;;5032349;28;20022;-74
2023/02/27 13:04:45;;;;;;;7.22;2.88;;;9.10;33.20;;;;;;5031959;28;20039;-74
2023/02/27 13:07:31;;;;;;;6.30;2.50;;;9.20;33.20;;;;;;5032830;28;20022;-74
2023/02/27 13:10:10;;;;;;;14.60;3.30;;;9.30;33.60;;;;;;5025188;28;20029;-74
2023/02/27 13:12:52;;;;;;;6.07;2.35;;;9.30;33.20;;;;;;5032143;28;20028;-74
2023/02/27 13:15:29;;;;;;;8.20;2.80;;;9.40;33.50;;;;;;5032068;28;20014;-73
2023/02/27 13:18:19;;;;;;;10.40;2.83;;;9.40;32.90;;;;;;5031675;28;20018;-74
2023/02/27 13:21:10;;;;;;;4.63;2.35;;;9.30;32.70;;;;;;5032205;28;20392;-74
2023/02/27 13:23:53;;;;;;;13.15;2.83;;;9.20;32.60;;;;;;5037221;28;20021;-74
2023/02/27 13:26:34;;;;;;;8.18;2.80;;;9.10;32.90;;;;;;5054451;28;20052;-74
2023/02/27 13:29:00;;;;;;;6.05;2.45;;;9.10;32.80;;;;;;5042275;28;20075;-74